Terminal Aerodrome Forecast
Issued by NWS Huntsville, AL

Home | Current Version | Previous Version | Text Only | Print | Product List | Glossary On
Versions: 1 2 3 4 5 6 7 8 9 10 11 12 13 14 15
000
FTUS44 KHUN 191720
TAFMSL
TAF
KMSL 191720Z 1918/2018 VRB03KT P6SM FEW040
     FM200000 00000KT P6SM SKC
     FM200900 00000KT 3SM BR SKC
      TEMPO 2009/2013 1/2SM FG VV001
     FM201500 12003KT P6SM SKC=

USA.gov is the U.S. government's official web portal to all federal, state and local government web resources and services.